Time;durP1;ratioP1;P1;durP2;ratioP2;P2;SDS_P1;SDS_P2;PMS_P1;PMS_P2;Temp;Humidity;BMP_temperature;BMP_pressure;BME280_temperature;BME280_humidity;BME280_pressure;Samples;Min_cycle;Max_cycle;Signal;HPM_P1;HPM_P2
2023/03/01 00:01:17;;;;;;;4.05;1.70;;;5.50;99.90;;;;;;4828961;29;20062;-59
2023/03/01 00:03:45;;;;;;;4.15;1.63;;;5.60;99.90;;;;;;4829343;29;20376;-58
2023/03/01 00:06:13;;;;;;;4.28;1.98;;;5.60;99.90;;;;;;4821197;29;20057;-63
2023/03/01 00:08:44;;;;;;;5.07;2.42;;;5.60;99.90;;;;;;4828101;29;20046;-60
2023/03/01 00:11:24;;;;;;;7.60;2.80;;;5.60;99.90;;;;;;4835344;29;20054;-60
2023/03/01 00:13:54;;;;;;;5.63;2.78;;;5.70;99.90;;;;;;4823779;29;20073;-59
2023/03/01 00:16:28;;;;;;;9.55;2.55;;;5.80;99.90;;;;;;4819948;29;20051;-60
2023/03/01 00:18:57;;;;;;;4.60;2.40;;;5.70;99.90;;;;;;4829200;29;20060;-59
2023/03/01 00:21:26;;;;;;;5.85;2.50;;;5.80;99.90;;;;;;4814928;29;20062;-60
2023/03/01 00:23:55;;;;;;;3.15;2.05;;;5.80;99.90;;;;;;4822752;29;20046;-59
2023/03/01 00:26:24;;;;;;;5.40;2.30;;;5.80;99.90;;;;;;4832628;29;20593;-59
2023/03/01 00:28:53;;;;;;;3.85;2.10;;;5.80;99.90;;;;;;4823654;29;20519;-60
2023/03/01 00:31:23;;;;;;;4.35;2.10;;;5.90;99.90;;;;;;4824197;29;20483;-59
2023/03/01 00:33:57;;;;;;;;;;;5.90;99.90;;;;;;4828539;29;20046;-59
2023/03/01 00:36:28;;;;;;;3.33;2.00;;;5.90;99.90;;;;;;4830306;29;19928;-60
2023/03/01 00:38:57;;;;;;;4.90;2.28;;;5.80;99.90;;;;;;4820858;29;20054;-58
2023/03/01 00:41:26;;;;;;;4.00;1.90;;;5.90;99.90;;;;;;4818789;29;20058;-58
2023/03/01 00:43:55;;;;;;;5.10;1.90;;;5.90;99.90;;;;;;4828167;29;20669;-58
2023/03/01 00:46:25;;;;;;;3.85;1.90;;;5.90;99.90;;;;;;4829402;29;20055;-59
2023/03/01 00:48:54;;;;;;;7.43;1.90;;;5.90;99.90;;;;;;4821519;29;20054;-59
2023/03/01 00:51:25;;;;;;;3.65;1.70;;;6.00;99.90;;;;;;4819816;29;20065;-60
2023/03/01 00:53:56;;;;;;;6.95;2.50;;;6.00;99.90;;;;;;4829246;29;20069;-60
2023/03/01 00:56:24;;;;;;;5.80;2.28;;;5.90;99.90;;;;;;4834994;29;20422;-60
2023/03/01 00:58:52;;;;;;;7.43;2.60;;;6.00;99.90;;;;;;4825092;29;20410;-60
2023/03/01 01:01:23;;;;;;;5.53;2.72;;;6.00;99.90;;;;;;4819124;29;20050;-60
2023/03/01 01:04:01;;;;;;;4.80;2.60;;;6.00;99.90;;;;;;4816172;29;20042;-60
2023/03/01 01:06:35;;;;;;;5.28;2.47;;;6.00;99.90;;;;;;4814965;29;20580;-60
2023/03/01 01:09:05;;;;;;;5.90;2.92;;;6.00;99.90;;;;;;4829019;29;20046;-60
2023/03/01 01:11:35;;;;;;;3.90;2.45;;;6.00;99.90;;;;;;4817628;29;20057;-58
2023/03/01 01:14:03;;;;;;;6.40;2.65;;;6.00;99.90;;;;;;4830185;29;20054;-58
2023/03/01 01:16:30;;;;;;;4.63;2.58;;;6.00;99.90;;;;;;4821533;29;20054;-58
2023/03/01 01:18:58;;;;;;;5.15;1.83;;;6.00;99.90;;;;;;4818938;29;20046;-58
2023/03/01 01:21:28;;;;;;;3.43;2.20;;;6.00;99.90;;;;;;4819100;29;20050;-59
2023/03/01 01:23:57;;;;;;;5.07;1.95;;;6.00;99.90;;;;;;4819464;29;20502;-59
2023/03/01 01:26:30;;;;;;;4.93;1.63;;;6.00;99.90;;;;;;4817706;29;20061;-58
2023/03/01 01:29:00;;;;;;;4.70;2.28;;;6.00;99.90;;;;;;4801960;29;20058;-59
2023/03/01 01:31:29;;;;;;;4.28;1.60;;;6.00;99.90;;;;;;4809605;29;20055;-59
2023/03/01 01:33:59;;;;;;;5.78;2.00;;;6.00;99.90;;;;;;4826131;29;20050;-58
2023/03/01 01:36:27;;;;;;;4.88;2.22;;;6.00;99.90;;;;;;4824851;29;20050;-59
2023/03/01 01:38:56;;;;;;;2.53;1.35;;;6.00;99.90;;;;;;4826385;29;20392;-58
2023/03/01 01:41:25;;;;;;;2.88;1.20;;;6.00;99.90;;;;;;4816065;29;20655;-59
2023/03/01 01:44:29;;;;;;;6.63;1.65;;;6.00;99.90;;;;;;4822356;29;20057;-60
2023/03/01 01:47:03;;;;;;;2.80;1.67;;;6.00;99.90;;;;;;4849790;29;20053;-59
2023/03/01 01:49:33;;;;;;;5.63;1.60;;;6.00;99.90;;;;;;4832643;29;20061;-59
2023/03/01 01:52:05;;;;;;;;;;;5.90;99.90;;;;;;4826196;29;20050;-59
2023/03/01 01:54:54;;;;;;;2.65;1.40;;;5.90;99.90;;;;;;4811183;29;20293;-59
2023/03/01 01:57:27;;;;;;;5.20;1.30;;;5.90;99.90;;;;;;4804129;29;20062;-60
2023/03/01 01:59:59;;;;;;;2.05;1.08;;;5.90;99.90;;;;;;4835850;29;20534;-59
2023/03/01 02:02:27;;;;;;;4.25;1.23;;;5.90;99.90;;;;;;4831201;29;20046;-60
2023/03/01 02:05:10;;;;;;;2.45;1.42;;;5.90;99.90;;;;;;4834329;29;20514;-60
2023/03/01 02:07:39;;;;;;;1.85;1.15;;;5.90;99.90;;;;;;4836955;29;20061;-60
2023/03/01 02:10:08;;;;;;;3.85;1.50;;;5.90;99.90;;;;;;4835873;29;20050;-59
2023/03/01 02:12:36;;;;;;;2.00;1.20;;;5.90;99.90;;;;;;4816635;29;20058;-59
2023/03/01 02:15:05;;;;;;;3.05;1.00;;;5.90;99.90;;;;;;4815987;29;20518;-60
2023/03/01 02:17:34;;;;;;;4.20;1.20;;;5.90;99.90;;;;;;4802203;29;20043;-60
2023/03/01 02:20:34;;;;;;;2.45;0.95;;;5.90;99.90;;;;;;4838188;29;20054;-60
2023/03/01 02:23:02;;;;;;;2.53;1.00;;;5.90;99.90;;;;;;4835583;29;20050;-60
2023/03/01 02:25:47;;;;;;;3.05;1.30;;;5.90;99.90;;;;;;4820580;29;20050;-59
2023/03/01 02:28:17;;;;;;;1.15;1.00;;;5.90;99.90;;;;;;4824100;29;20078;-60
2023/03/01 02:33:36;;;;;;;2.95;1.35;;;5.90;99.90;;;;;;4806646;29;20055;-60
2023/03/01 02:36:09;;;;;;;1.42;1.10;;;5.90;99.90;;;;;;4825329;29;20054;-59
2023/03/01 02:38:36;;;;;;;2.05;1.33;;;5.90;99.90;;;;;;4841399;29;20058;-60
2023/03/01 02:41:06;;;;;;;2.13;1.42;;;5.90;99.90;;;;;;4827351;29;20057;-60
2023/03/01 02:43:34;;;;;;;;;;;5.80;99.90;;;;;;4822926;29;20592;-59
2023/03/01 02:46:08;;;;;;;;;;;5.90;99.90;;;;;;4822083;29;19928;-59
2023/03/01 02:48:45;;;;;;;3.78;1.85;;;5.80;99.90;;;;;;4823660;29;20405;-60
2023/03/01 02:51:34;;;;;;;3.53;1.70;;;5.80;99.90;;;;;;4824655;29;20058;-61
2023/03/01 02:54:10;;;;;;;;;;;5.80;99.90;;;;;;4822997;29;20038;-60
2023/03/01 02:56:37;;;;;;;4.47;1.70;;;5.70;99.90;;;;;;4823085;29;19925;-59
2023/03/01 02:59:05;;;;;;;4.03;2.30;;;5.70;99.90;;;;;;4822686;29;20050;-59
2023/03/01 03:01:36;;;;;;;4.63;1.98;;;5.70;99.90;;;;;;4821774;29;20055;-59
2023/03/01 03:04:16;;;;;;;3.97;1.90;;;5.70;99.90;;;;;;4823105;29;20046;-59
2023/03/01 03:06:49;;;;;;;5.20;2.47;;;5.70;99.90;;;;;;4824696;29;20057;-59
2023/03/01 03:09:18;;;;;;;4.07;1.67;;;5.70;99.90;;;;;;4824262;29;20505;-59
2023/03/01 03:11:46;;;;;;;6.03;2.80;;;5.70;99.90;;;;;;4824189;29;20046;-60
2023/03/01 03:14:16;;;;;;;7.35;2.22;;;5.70;99.90;;;;;;4821616;29;20062;-59
2023/03/01 03:16:48;;;;;;;5.18;2.30;;;5.70;99.90;;;;;;4823002;29;20038;-59
2023/03/01 03:19:18;;;;;;;6.25;2.20;;;5.70;99.90;;;;;;4823036;29;20057;-59
2023/03/01 03:21:46;;;;;;;5.65;1.80;;;5.80;99.90;;;;;;4822914;29;20069;-59
2023/03/01 03:24:13;;;;;;;5.03;2.15;;;5.70;99.90;;;;;;4822974;29;20050;-59
2023/03/01 03:26:41;;;;;;;4.47;1.92;;;5.80;99.90;;;;;;4823455;29;20054;-59
2023/03/01 03:29:09;;;;;;;2.67;1.48;;;5.80;99.90;;;;;;4824016;29;20061;-59
2023/03/01 03:31:36;;;;;;;3.70;2.00;;;5.80;99.90;;;;;;4824067;29;20088;-59
2023/03/01 03:34:04;;;;;;;8.20;2.40;;;5.80;99.90;;;;;;4822690;29;20074;-60
2023/03/01 03:36:31;;;;;;;4.63;2.05;;;5.80;99.90;;;;;;4829659;29;20049;-60
2023/03/01 03:38:59;;;;;;;3.63;2.33;;;5.80;99.90;;;;;;4808769;29;20055;-60
2023/03/01 03:41:26;;;;;;;3.53;1.92;;;5.80;99.90;;;;;;4805311;29;20062;-60
2023/03/01 03:43:54;;;;;;;5.60;2.47;;;;;;;;;;4805548;29;20411;-60
2023/03/01 03:46:22;;;;;;;6.13;2.63;;;5.80;99.90;;;;;;4805399;29;20058;-59
2023/03/01 03:48:50;;;;;;;5.75;3.05;;;5.80;99.90;;;;;;4808569;29;20046;-59
2023/03/01 03:51:18;;;;;;;8.45;3.03;;;5.80;99.90;;;;;;4823575;29;20072;-60
2023/03/01 03:53:46;;;;;;;8.75;3.15;;;5.80;99.90;;;;;;4823712;29;20051;-60
2023/03/01 03:56:14;;;;;;;6.32;2.58;;;5.70;99.90;;;;;;4823228;29;20058;-59
2023/03/01 03:58:41;;;;;;;5.20;2.00;;;5.70;99.90;;;;;;4821000;29;20066;-59
2023/03/01 04:01:09;;;;;;;2.83;1.80;;;5.70;99.90;;;;;;4823406;29;20051;-59
2023/03/01 04:03:36;;;;;;;2.05;1.23;;;5.70;99.90;;;;;;4823573;29;20053;-59
2023/03/01 04:06:05;;;;;;;2.92;1.20;;;5.70;99.90;;;;;;4826204;29;20073;-59
2023/03/01 04:08:32;;;;;;;1.63;0.90;;;5.70;99.90;;;;;;4832151;29;20597;-60
2023/03/01 04:11:25;;;;;;;1.30;0.80;;;5.70;99.90;;;;;;4808049;29;20046;-60
2023/03/01 04:13:51;;;;;;;2.00;1.02;;;5.70;99.90;;;;;;4823081;29;20080;-60
2023/03/01 04:16:18;;;;;;;4.63;1.00;;;5.70;99.90;;;;;;4823195;29;20442;-60
2023/03/01 04:18:46;;;;;;;1.10;0.90;;;5.70;99.90;;;;;;4821980;29;20073;-60
2023/03/01 04:21:14;;;;;;;1.30;1.15;;;5.70;99.90;;;;;;4809475;29;20521;-60
2023/03/01 04:23:41;;;;;;;2.97;0.90;;;5.70;99.90;;;;;;4823385;29;20065;-59
2023/03/01 04:26:09;;;;;;;1.25;1.15;;;5.70;99.90;;;;;;4822961;29;20108;-60
2023/03/01 04:28:47;;;;;;;1.50;0.93;;;5.70;99.90;;;;;;4823224;29;20050;-60
2023/03/01 04:31:20;;;;;;;2.33;1.00;;;5.70;99.90;;;;;;4823555;29;20062;-60
2023/03/01 04:33:53;;;;;;;3.60;1.38;;;5.70;99.90;;;;;;4821952;29;20050;-60
2023/03/01 04:36:24;;;;;;;3.38;1.30;;;5.70;99.90;;;;;;4829128;29;20615;-59
2023/03/01 04:38:52;;;;;;;3.47;1.23;;;5.70;99.90;;;;;;4841223;29;20046;-58
2023/03/01 04:41:22;;;;;;;2.85;1.58;;;5.70;99.90;;;;;;4839663;29;20061;-59
2023/03/01 04:43:50;;;;;;;2.90;1.60;;;5.70;99.90;;;;;;4827624;29;20490;-59
2023/03/01 04:46:20;;;;;;;2.30;1.30;;;5.60;99.90;;;;;;4822815;29;20047;-59
2023/03/01 04:48:48;;;;;;;4.22;1.70;;;5.60;99.90;;;;;;4822915;29;20054;-59
2023/03/01 04:51:16;;;;;;;2.63;1.50;;;5.60;99.90;;;;;;4821418;29;20518;-59
2023/03/01 04:53:44;;;;;;;2.78;1.80;;;5.60;99.90;;;;;;4822773;29;20399;-60
2023/03/01 04:56:15;;;;;;;3.25;2.05;;;5.60;99.90;;;;;;4822668;29;20055;-59
2023/03/01 04:58:43;;;;;;;2.60;1.50;;;5.60;99.90;;;;;;4822956;29;20507;-59
2023/03/01 05:01:20;;;;;;;3.55;1.98;;;5.60;99.90;;;;;;4821519;29;20058;-59
2023/03/01 05:03:51;;;;;;;4.03;1.88;;;5.60;99.90;;;;;;4822681;29;20050;-60
2023/03/01 05:06:20;;;;;;;2.92;1.80;;;5.60;99.90;;;;;;4828574;29;20058;-59
2023/03/01 05:08:47;;;;;;;3.42;2.17;;;5.60;99.90;;;;;;4839543;29;20042;-62
2023/03/01 05:11:15;;;;;;;6.28;2.15;;;5.60;99.90;;;;;;4840665;29;20458;-60
2023/03/01 05:13:43;;;;;;;4.20;2.45;;;5.60;99.90;;;;;;4840525;29;20631;-60
2023/03/01 05:16:13;;;;;;;3.00;1.83;;;5.60;99.90;;;;;;4823416;29;20113;-60
2023/03/01 05:18:41;;;;;;;4.13;1.85;;;5.50;99.90;;;;;;4821441;29;20059;-60
2023/03/01 05:21:12;;;;;;;3.40;1.90;;;5.40;99.90;;;;;;4821789;29;20054;-60
2023/03/01 05:23:40;;;;;;;7.28;2.90;;;5.30;99.90;;;;;;4822149;29;20047;-60
2023/03/01 05:26:08;;;;;;;5.40;1.90;;;5.20;99.90;;;;;;4822313;29;20045;-61
2023/03/01 05:28:58;;;;;;;5.10;2.22;;;5.10;99.90;;;;;;4822628;29;20498;-59
2023/03/01 05:31:26;;;;;;;4.03;2.08;;;5.00;99.90;;;;;;4824743;29;20050;-59
2023/03/01 05:33:54;;;;;;;4.30;2.22;;;4.90;99.90;;;;;;4826028;29;20094;-61
2023/03/01 05:36:22;;;;;;;3.83;1.80;;;4.70;99.90;;;;;;4831008;29;20495;-59
2023/03/01 05:38:49;;;;;;;5.82;1.90;;;4.70;99.90;;;;;;4831639;29;20054;-59
2023/03/01 05:41:17;;;;;;;3.67;1.95;;;4.50;99.90;;;;;;4825572;29;20042;-59
2023/03/01 05:43:44;;;;;;;2.97;1.63;;;4.40;99.90;;;;;;4825648;29;20628;-60
2023/03/01 05:46:14;;;;;;;6.18;1.80;;;4.30;99.90;;;;;;4825562;29;20046;-60
2023/03/01 05:48:43;;;;;;;4.20;2.08;;;4.20;99.90;;;;;;4809128;29;20054;-60
2023/03/01 05:51:11;;;;;;;4.68;1.88;;;4.10;99.90;;;;;;4818998;29;20525;-60
2023/03/01 05:53:39;;;;;;;5.07;1.70;;;4.00;99.90;;;;;;4822596;29;20055;-59
2023/03/01 05:56:07;;;;;;;6.57;1.85;;;3.90;99.90;;;;;;4822046;29;20471;-59
2023/03/01 05:58:38;;;;;;;2.72;1.75;;;3.90;99.90;;;;;;4834089;29;20053;-59
2023/03/01 06:01:10;;;;;;;5.80;1.90;;;3.90;99.90;;;;;;4814694;29;20587;-60
2023/03/01 06:03:38;;;;;;;4.90;1.30;;;3.80;99.90;;;;;;4810092;29;20073;-60
2023/03/01 06:06:05;;;;;;;2.92;1.40;;;3.80;99.90;;;;;;4823118;29;20058;-60
2023/03/01 06:08:33;;;;;;;3.88;1.30;;;3.80;99.90;;;;;;4837972;29;20246;-60
2023/03/01 06:11:01;;;;;;;5.20;1.70;;;3.90;99.90;;;;;;4824038;29;20360;-59
2023/03/01 06:13:32;;;;;;;3.28;1.70;;;;;;;;;;4835842;29;20882;-60
2023/03/01 06:15:59;;;;;;;5.53;1.77;;;3.90;99.90;;;;;;4823983;29;20050;-60
2023/03/01 06:18:27;;;;;;;3.92;1.45;;;4.00;99.90;;;;;;4809595;29;20058;-60
2023/03/01 06:20:55;;;;;;;3.80;1.35;;;4.00;99.90;;;;;;4800721;29;20444;-59
2023/03/01 06:23:24;;;;;;;5.18;1.42;;;4.10;99.90;;;;;;4815159;29;20061;-59
2023/03/01 06:25:52;;;;;;;5.13;1.90;;;4.20;99.90;;;;;;4823428;29;20057;-59
2023/03/01 06:28:20;;;;;;;4.35;1.73;;;4.30;99.90;;;;;;4817607;29;20050;-59
2023/03/01 06:30:49;;;;;;;5.00;2.47;;;4.30;99.90;;;;;;4801501;29;20051;-59
2023/03/01 06:33:19;;;;;;;4.47;2.05;;;4.40;99.90;;;;;;4814224;29;20360;-59
2023/03/01 06:35:47;;;;;;;;;;;4.50;99.90;;;;;;4837187;29;20065;-60
2023/03/01 06:38:17;;;;;;;8.52;1.85;;;4.50;99.90;;;;;;4838888;29;19924;-60
2023/03/01 06:40:45;;;;;;;3.88;1.85;;;4.50;99.90;;;;;;4839028;29;20054;-59
2023/03/01 06:43:12;;;;;;;4.32;1.83;;;4.60;99.90;;;;;;4825919;29;20065;-59
2023/03/01 06:45:40;;;;;;;3.58;1.67;;;4.60;99.90;;;;;;4839696;29;20053;-59
2023/03/01 06:48:08;;;;;;;4.97;2.33;;;4.60;99.90;;;;;;4827554;29;20492;-60
2023/03/01 06:50:36;;;;;;;8.23;3.15;;;4.60;99.90;;;;;;4802427;29;20046;-59
2023/03/01 06:53:04;;;;;;;7.10;2.30;;;5.20;99.90;;;;;;4808303;29;20073;-60
2023/03/01 06:55:32;;;;;;;5.25;2.75;;;4.70;99.90;;;;;;4825323;29;20516;-59
2023/03/01 06:58:02;;;;;;;7.60;2.40;;;4.70;99.90;;;;;;4826764;29;20057;-59
2023/03/01 07:00:30;;;;;;;5.63;2.75;;;4.70;99.90;;;;;;4839055;29;20061;-58
2023/03/01 07:02:59;;;;;;;6.93;2.53;;;4.80;99.90;;;;;;4828114;29;20047;-58
2023/03/01 07:05:27;;;;;;;5.27;2.57;;;4.70;99.90;;;;;;4800405;29;20055;-59
2023/03/01 07:07:56;;;;;;;4.63;2.35;;;4.70;99.90;;;;;;4839010;29;20050;-59
2023/03/01 07:10:23;;;;;;;4.40;1.88;;;4.70;99.90;;;;;;4826365;29;20042;-59
2023/03/01 07:12:55;;;;;;;3.40;2.03;;;4.70;99.90;;;;;;4822351;29;20054;-59
2023/03/01 07:15:23;;;;;;;3.83;2.17;;;4.70;99.90;;;;;;4827493;29;20062;-59
2023/03/01 07:17:51;;;;;;;4.25;2.10;;;4.70;99.90;;;;;;4823456;29;20242;-59
2023/03/01 07:20:24;;;;;;;7.53;2.25;;;4.60;99.90;;;;;;4802760;29;20043;-59
2023/03/01 07:22:53;;;;;;;7.45;1.92;;;4.70;99.90;;;;;;4808456;29;20056;-58
2023/03/01 07:25:20;;;;;;;6.15;1.88;;;4.70;99.90;;;;;;4824280;29;20046;-59
2023/03/01 07:27:52;;;;;;;4.70;1.85;;;4.70;99.90;;;;;;4826753;29;20058;-59
2023/03/01 07:30:21;;;;;;;3.75;1.67;;;4.70;99.90;;;;;;4839269;29;20046;-58
2023/03/01 07:32:49;;;;;;;3.93;1.83;;;4.70;99.90;;;;;;4836332;29;20073;-59
2023/03/01 07:35:17;;;;;;;7.05;1.98;;;4.80;99.90;;;;;;4802729;29;20275;-59
2023/03/01 07:37:45;;;;;;;3.30;1.98;;;4.80;99.90;;;;;;4830759;29;20491;-59
2023/03/01 07:40:13;;;;;;;3.78;2.17;;;4.80;99.90;;;;;;4838786;29;20050;-60
2023/03/01 07:42:40;;;;;;;3.20;1.48;;;4.90;99.90;;;;;;4815895;29;20078;-59
2023/03/01 07:45:08;;;;;;;4.20;2.00;;;4.90;99.90;;;;;;4838983;29;20064;-60
2023/03/01 07:47:36;;;;;;;2.65;1.27;;;4.90;99.90;;;;;;4838750;29;20057;-60
2023/03/01 07:50:05;;;;;;;4.95;1.35;;;5.00;99.90;;;;;;4804852;29;20495;-60
2023/03/01 07:52:32;;;;;;;4.53;1.65;;;4.90;99.90;;;;;;4816577;29;20054;-60
2023/03/01 07:55:00;;;;;;;2.85;1.60;;;5.00;99.90;;;;;;4829941;29;20050;-59
2023/03/01 07:57:28;;;;;;;4.47;2.15;;;5.00;99.90;;;;;;4819416;29;20494;-59
2023/03/01 07:59:55;;;;;;;2.88;1.85;;;5.10;99.90;;;;;;4834677;29;20058;-59
2023/03/01 08:02:23;;;;;;;2.20;1.67;;;5.10;99.90;;;;;;4835229;29;20050;-59
2023/03/01 08:04:51;;;;;;;7.80;1.77;;;5.20;99.90;;;;;;4808778;29;20050;-60
2023/03/01 08:07:18;;;;;;;5.63;2.35;;;5.20;99.90;;;;;;4831659;29;20042;-58
2023/03/01 08:09:46;;;;;;;2.72;1.67;;;5.20;99.90;;;;;;4817556;29;20055;-59
2023/03/01 08:12:16;;;;;;;6.80;1.70;;;5.20;99.90;;;;;;4815821;29;20042;-59
2023/03/01 08:14:43;;;;;;;5.35;1.77;;;5.20;99.90;;;;;;4835675;29;20069;-60
2023/03/01 08:17:14;;;;;;;5.82;2.03;;;5.20;99.90;;;;;;4838148;29;20061;-59
2023/03/01 08:19:43;;;;;;;3.05;1.60;;;5.20;99.90;;;;;;4823700;29;20423;-60
2023/03/01 08:22:10;;;;;;;5.15;2.03;;;5.30;99.90;;;;;;4818579;29;20426;-61
2023/03/01 08:24:38;;;;;;;7.30;2.40;;;5.40;99.90;;;;;;4828170;29;20053;-59
2023/03/01 08:27:06;;;;;;;3.88;2.00;;;5.30;99.90;;;;;;4804829;29;20064;-59
2023/03/01 08:29:34;;;;;;;4.80;2.33;;;5.30;99.90;;;;;;4837914;29;20054;-60
2023/03/01 08:32:01;;;;;;;3.00;2.00;;;5.40;99.90;;;;;;4818634;29;20773;-59
2023/03/01 08:34:31;;;;;;;9.57;3.03;;;5.40;99.90;;;;;;4814203;29;20058;-60
2023/03/01 08:36:58;;;;;;;3.93;1.93;;;5.40;99.90;;;;;;4823294;29;20070;-59
2023/03/01 08:39:26;;;;;;;4.68;1.73;;;5.40;99.90;;;;;;4837797;29;20491;-59
2023/03/01 08:41:54;;;;;;;2.95;1.50;;;5.30;99.90;;;;;;4834755;29;20042;-60
2023/03/01 08:44:21;;;;;;;4.30;1.67;;;5.30;99.90;;;;;;4832868;29;20057;-59
2023/03/01 08:46:52;;;;;;;3.70;1.98;;;5.30;99.90;;;;;;4837990;29;20056;-59
2023/03/01 08:49:20;;;;;;;3.33;1.38;;;6.20;99.90;;;;;;4824060;29;20050;-59
2023/03/01 08:51:48;;;;;;;5.60;1.48;;;5.40;99.90;;;;;;4819423;29;20054;-59
2023/03/01 08:54:21;;;;;;;4.72;2.58;;;5.40;99.90;;;;;;4830754;29;20065;-59
2023/03/01 08:56:49;;;;;;;6.82;1.58;;;5.40;99.90;;;;;;4819568;29;20058;-59
2023/03/01 08:59:17;;;;;;;8.43;1.70;;;5.40;99.90;;;;;;4836287;29;20631;-59
2023/03/01 09:01:45;;;;;;;13.45;2.10;;;5.50;99.90;;;;;;4836087;29;20053;-60
2023/03/01 09:04:14;;;;;;;3.40;1.67;;;5.60;99.90;;;;;;4819400;29;20055;-60
2023/03/01 09:06:42;;;;;;;2.85;1.33;;;;;;;;;;4818637;29;20053;-60
2023/03/01 09:09:15;;;;;;;4.32;1.45;;;5.60;99.90;;;;;;4837575;29;20050;-59
2023/03/01 09:11:49;;;;;;;5.60;1.63;;;5.70;99.90;;;;;;4836392;29;20057;-60
2023/03/01 09:14:17;;;;;;;3.08;1.25;;;5.70;99.90;;;;;;4831834;29;20070;-59
2023/03/01 09:16:45;;;;;;;5.45;1.75;;;5.80;99.90;;;;;;4837614;29;20058;-59
2023/03/01 09:19:13;;;;;;;4.20;1.63;;;5.80;99.90;;;;;;4827462;29;20078;-60
2023/03/01 09:21:51;;;;;;;2.95;1.67;;;5.90;99.90;;;;;;4806927;29;20061;-58
2023/03/01 09:24:24;;;;;;;4.25;1.70;;;5.90;99.90;;;;;;4830206;29;20057;-58
2023/03/01 09:26:55;;;;;;;4.78;1.65;;;6.10;99.90;;;;;;4819170;29;20049;-58
2023/03/01 09:29:23;;;;;;;4.13;1.10;;;6.10;99.90;;;;;;4836654;29;20050;-59
2023/03/01 09:31:50;;;;;;;5.47;1.40;;;6.30;99.90;;;;;;4834185;29;20050;-60
2023/03/01 09:34:22;;;;;;;7.13;2.17;;;6.30;99.90;;;;;;4825728;29;20538;-58
2023/03/01 09:36:51;;;;;;;5.88;2.30;;;6.40;99.90;;;;;;4828741;29;20498;-59
2023/03/01 09:39:20;;;;;;;5.57;1.85;;;6.40;99.90;;;;;;4806725;29;20047;-59
2023/03/01 09:41:59;;;;;;;5.00;1.67;;;6.40;99.90;;;;;;4802023;29;20054;-59
2023/03/01 09:44:31;;;;;;;4.28;1.63;;;6.50;99.90;;;;;;4804617;29;20055;-59
2023/03/01 09:47:00;;;;;;;8.88;1.70;;;6.50;99.90;;;;;;4800860;29;20078;-58
2023/03/01 09:49:35;;;;;;;4.53;2.00;;;6.40;99.90;;;;;;4827133;29;20476;-58
2023/03/01 09:52:38;;;;;;;4.15;2.00;;;6.50;99.90;;;;;;4803732;29;20049;-59
2023/03/01 09:55:16;;;;;;;5.53;1.73;;;6.50;99.90;;;;;;4808354;29;20053;-59
2023/03/01 09:57:44;;;;;;;3.83;1.60;;;;;;;;;;4816548;29;20062;-59
2023/03/01 10:00:21;;;;;;;4.40;1.95;;;6.60;99.90;;;;;;4819004;29;20050;-59
2023/03/01 10:03:20;;;;;;;3.20;1.60;;;6.70;99.90;;;;;;4820170;29;20426;-58
2023/03/01 10:06:23;;;;;;;4.57;1.88;;;6.70;99.90;;;;;;4812777;29;20106;-58
2023/03/01 10:09:11;;;;;;;3.88;1.50;;;6.80;99.90;;;;;;4843684;29;20060;-59
2023/03/01 10:11:48;;;;;;;6.72;1.90;;;6.80;99.90;;;;;;4816156;29;20054;-58
2023/03/01 10:14:35;;;;;;;6.10;1.58;;;6.80;99.90;;;;;;4825177;29;20399;-59
2023/03/01 10:17:20;;;;;;;3.00;1.45;;;6.90;99.90;;;;;;4838916;29;20050;-58
2023/03/01 10:19:47;;;;;;;6.68;1.80;;;7.00;99.90;;;;;;4803685;29;20602;-60
2023/03/01 10:22:22;;;;;;;4.88;1.17;;;7.10;99.90;;;;;;4807799;29;20065;-59
2023/03/01 10:24:52;;;;;;;5.45;1.70;;;7.20;99.90;;;;;;4818914;29;20491;-58
2023/03/01 10:27:24;;;;;;;;;;;7.20;99.90;;;;;;4823961;29;20407;-58
2023/03/01 10:30:15;;;;;;;3.40;1.67;;;7.30;99.90;;;;;;4838966;29;19931;-58
2023/03/01 10:32:44;;;;;;;7.78;2.00;;;7.30;99.90;;;;;;4832798;29;20042;-60
2023/03/01 10:35:21;;;;;;;2.40;1.63;;;7.40;99.90;;;;;;4824202;29;20066;-59
2023/03/01 10:38:10;;;;;;;3.90;1.75;;;7.40;99.90;;;;;;4837892;29;20057;-58
2023/03/01 10:40:56;;;;;;;2.93;1.47;;;7.50;99.90;;;;;;4811340;29;20066;-59
2023/03/01 10:43:27;;;;;;;4.72;1.40;;;7.50;99.90;;;;;;4821127;29;20053;-58
2023/03/01 10:45:55;;;;;;;3.65;0.88;;;7.60;99.90;;;;;;4839854;29;20050;-58
2023/03/01 10:48:26;;;;;;;2.30;1.35;;;7.80;99.90;;;;;;4839485;29;20406;-58
2023/03/01 10:51:00;;;;;;;4.22;1.20;;;7.80;99.90;;;;;;4825756;29;20050;-58
2023/03/01 10:53:38;;;;;;;1.65;0.68;;;7.80;99.90;;;;;;4827133;29;20391;-58
2023/03/01 10:56:15;;;;;;;2.80;0.98;;;8.00;99.90;;;;;;4824387;29;20064;-58
2023/03/01 10:59:02;;;;;;;1.88;0.70;;;8.00;99.90;;;;;;4833432;29;20057;-59
2023/03/01 11:01:34;;;;;;;2.25;0.90;;;8.00;99.90;;;;;;4839799;29;20502;-58
2023/03/01 11:04:05;;;;;;;1.52;0.70;;;8.20;99.90;;;;;;4838079;29;20544;-59
2023/03/01 11:06:34;;;;;;;1.05;0.90;;;8.30;99.90;;;;;;4820600;29;20042;-57
2023/03/01 11:09:22;;;;;;;3.15;0.60;;;8.50;99.90;;;;;;4839290;29;20549;-58
2023/03/01 11:11:59;;;;;;;1.27;0.38;;;8.70;99.90;;;;;;4839224;29;20053;-58
2023/03/01 11:14:33;;;;;;;1.52;0.40;;;8.70;99.90;;;;;;4838746;29;20619;-59
2023/03/01 11:17:25;;;;;;;2.28;0.50;;;8.80;99.90;;;;;;4836825;29;20057;-58
2023/03/01 11:20:06;;;;;;;3.88;0.90;;;8.70;99.90;;;;;;4818654;29;20431;-59
2023/03/01 11:22:35;;;;;;;5.25;1.02;;;8.70;99.90;;;;;;4786393;29;20507;-58
2023/03/01 11:25:03;;;;;;;5.35;1.42;;;8.60;99.90;;;;;;4830769;29;20403;-59
2023/03/01 11:27:43;;;;;;;2.00;1.08;;;8.60;99.90;;;;;;4824017;29;20057;-59
2023/03/01 11:30:32;;;;;;;2.33;1.15;;;8.50;99.90;;;;;;4838835;29;20061;-59
2023/03/01 11:33:11;;;;;;;2.42;1.00;;;8.50;99.90;;;;;;4837387;29;20054;-59
2023/03/01 11:35:49;;;;;;;3.97;1.45;;;8.40;99.90;;;;;;4830811;29;20376;-59
2023/03/01 11:38:25;;;;;;;8.55;2.05;;;8.30;99.90;;;;;;4838956;29;20049;-59
2023/03/01 11:41:16;;;;;;;5.55;2.15;;;8.20;99.90;;;;;;4838872;29;20060;-59
2023/03/01 11:44:16;;;;;;;4.10;1.90;;;8.10;99.90;;;;;;4838683;29;20456;-59
2023/03/01 11:47:05;;;;;;;6.43;2.53;;;8.10;99.90;;;;;;4838701;29;20054;-59
2023/03/01 11:49:33;;;;;;;2.58;1.70;;;8.20;99.90;;;;;;4802644;29;20054;-58
2023/03/01 11:52:06;;;;;;;2.53;1.70;;;8.40;99.90;;;;;;4817226;29;20050;-58
2023/03/01 11:54:43;;;;;;;5.53;1.50;;;8.80;99.90;;;;;;4830258;29;20058;-59
2023/03/01 11:57:10;;;;;;;1.90;1.20;;;8.80;99.90;;;;;;4820851;29;20406;-59
2023/03/01 12:00:11;;;;;;;5.60;1.17;;;9.00;99.90;;;;;;4837379;29;20049;-59
2023/03/01 12:03:11;;;;;;;1.25;1.15;;;9.10;99.90;;;;;;4838409;29;20348;-58
2023/03/01 12:06:06;;;;;;;1.10;0.47;;;9.10;99.90;;;;;;4805061;29;20062;-58
2023/03/01 12:08:51;;;;;;;1.73;1.05;;;8.90;99.90;;;;;;4823915;29;20046;-58
2023/03/01 12:11:34;;;;;;;1.33;0.50;;;8.80;99.90;;;;;;4838115;29;20526;-58
2023/03/01 12:14:29;;;;;;;1.92;0.57;;;8.60;99.90;;;;;;4834551;29;20054;-59
2023/03/01 12:17:13;;;;;;;1.38;0.63;;;8.50;99.90;;;;;;4835931;29;20491;-58
2023/03/01 12:19:53;;;;;;;0.60;0.50;;;8.50;99.90;;;;;;4801767;29;20058;-58
2023/03/01 12:22:47;;;;;;;0.90;0.50;;;8.40;99.90;;;;;;4801573;29;20054;-57
2023/03/01 12:25:41;;;;;;;2.50;0.45;;;8.40;99.90;;;;;;4807427;29;20053;-58
2023/03/01 12:28:23;;;;;;;1.45;0.47;;;8.30;99.90;;;;;;4817496;29;20053;-58
2023/03/01 12:31:00;;;;;;;0.88;0.60;;;8.30;99.90;;;;;;4822115;29;20518;-58
2023/03/01 12:33:46;;;;;;;1.25;0.60;;;8.30;99.90;;;;;;4837414;29;20074;-58
2023/03/01 12:36:22;;;;;;;1.20;0.70;;;8.30;99.90;;;;;;4832949;29;20061;-58
2023/03/01 12:39:32;;;;;;;3.80;0.95;;;8.30;99.90;;;;;;4831550;29;20479;-58
2023/03/01 12:41:59;;;;;;;2.97;1.17;;;8.30;99.90;;;;;;4821044;29;20069;-59
2023/03/01 12:44:36;;;;;;;3.05;0.63;;;8.40;99.90;;;;;;4832212;29;20046;-59
2023/03/01 12:47:14;;;;;;;3.20;0.50;;;8.40;99.90;;;;;;4837677;29;20065;-57
2023/03/01 12:49:46;;;;;;;2.70;0.80;;;8.40;99.90;;;;;;4801474;29;20055;-58
2023/03/01 12:52:24;;;;;;;4.97;1.30;;;8.40;99.90;;;;;;4798066;29;20062;-59
2023/03/01 12:54:55;;;;;;;2.53;0.50;;;8.40;99.90;;;;;;4821391;29;20085;-60
2023/03/01 12:57:38;;;;;;;1.70;0.45;;;8.50;99.90;;;;;;4820976;29;20384;-59
2023/03/01 13:00:28;;;;;;;2.35;0.85;;;8.60;99.90;;;;;;4837592;29;20046;-59
2023/03/01 13:03:23;;;;;;;4.90;0.50;;;8.60;99.90;;;;;;4837484;29;20499;-59
2023/03/01 13:06:21;;;;;;;2.42;0.73;;;8.70;99.90;;;;;;4832541;29;20094;-59
2023/03/01 13:09:02;;;;;;;1.20;0.90;;;8.80;99.90;;;;;;4827238;29;20045;-59
2023/03/01 13:11:30;;;;;;;2.42;1.38;;;8.80;99.90;;;;;;4827569;29;20054;-59
2023/03/01 13:14:22;;;;;;;3.35;1.60;;;8.90;99.90;;;;;;4826239;29;20061;-60
2023/03/01 13:16:52;;;;;;;3.55;1.75;;;9.10;99.90;;;;;;4836497;29;20158;-59
2023/03/01 13:19:25;;;;;;;6.57;1.80;;;9.60;99.90;;;;;;4829918;29;20050;-60
2023/03/01 13:21:54;;;;;;;2.63;1.98;;;10.00;99.90;;;;;;4809447;29;20564;-60
2023/03/01 13:24:42;;;;;;;2.38;0.90;;;10.10;99.90;;;;;;4821238;29;20078;-60
2023/03/01 13:27:21;;;;;;;2.70;0.88;;;10.00;99.90;;;;;;4819290;29;20061;-61
2023/03/01 13:29:54;;;;;;;4.25;0.88;;;9.90;99.90;;;;;;4837556;29;20050;-59
2023/03/01 13:32:24;;;;;;;3.15;1.15;;;9.80;99.90;;;;;;4837510;29;20069;-59